Latest Weather Observations for St Kilda Harbour RMYS

IDV60901

Issued at 5:11 pm EDT Tuesday 26 March 2019 (issued every 10 minutes, with the page automatically refreshed every 10 minutes)

About weather observations | Map of Melbourne area stations | Latest observations for Melbourne area | Other Formats
Station Details ID: 086220 Name: ST KILDA HARBOUR - RMYS Lat: -37.86 Lon: 144.96 Height: 6.4 m
Data from the previous 72 hours. | See also: Recent months at St Kilda Harbour RMYS
Date/Time
EDT
Temp
°C
App
Temp
°C
Dew
Point
°C
Rel
Hum
%
Delta-T
°C
Wind Press
QNH
hPa
Press
MSL
hPa
Rain since
9am
mm
Dir  Spd
km/h
Gust
km/h
Spd
kts
Gust
kts
26/05:00pm - - - - - SSE 24 32 13 17 - - -
26/04:30pm - - - - - SSE 20 26 11 14 - - -
26/04:00pm - - - - - S 22 28 12 15 - - -
26/03:30pm - - - - - SW 32 39 17 21 - - -
26/03:00pm - - - - - SW 26 33 14 18 - - -
26/02:30pm - - - - - SW 28 33 15 18 - - -
26/02:00pm - - - - - SW 30 37 16 20 - - -
26/01:30pm - - - - - SW 32 41 17 22 - - -
26/01:00pm - - - - - SW 33 44 18 24 - - -
26/12:30pm - - - - - SW 37 46 20 25 - - -
26/12:00pm - - - - - SW 39 48 21 26 - - -
26/11:30am - - - - - WSW 41 52 22 28 - - -
26/11:00am - - - - - WSW 41 52 22 28 - - -
26/10:30am - - - - - WSW 37 46 20 25 - - -
26/10:00am - - - - - W 37 48 20 26 - - -
26/09:30am - - - - - WNW 32 41 17 22 - - -
26/09:00am - - - - - WNW 32 43 17 23 - - -
26/08:30am - - - - - WNW 30 37 16 20 - - -
26/08:00am - - - - - WNW 28 35 15 19 - - -
26/07:30am - - - - - WNW 28 39 15 21 - - -
26/07:00am - - - - - NW 30 37 16 20 - - -
26/06:30am - - - - - WNW 35 48 19 26 - - -
26/06:00am - - - - - WNW 30 41 16 22 - - -
26/05:30am - - - - - NW 30 44 16 24 - - -
26/05:00am - - - - - WNW 30 39 16 21 - - -
26/04:30am - - - - - NW 30 39 16 21 - - -
26/04:00am - - - - - NW 33 48 18 26 - - -
26/03:30am - - - - - WNW 35 44 19 24 - - -
26/03:00am - - - - - NW 28 35 15 19 - - -
26/02:30am - - - - - NW 32 41 17 22 - - -
26/02:00am - - - - - NW 32 39 17 21 - - -
26/01:30am - - - - - NW 32 43 17 23 - - -
26/01:00am - - - - - NW 33 41 18 22 - - -
26/12:30am - - - - - NW 37 46 20 25 - - -
26/12:00am - - - - - NNW 26 32 14 17 - - -
 
Date/Time
EDT
Temp
°C
App
Temp
°C
Dew
Point
°C
Rel
Hum
%
Delta-T
°C
Wind Press
QNH
hPa
Press
MSL
hPa
Rain since
9am
mm
Dir  Spd
km/h
Gust
km/h
Spd
kts
Gust
kts
25/11:30pm - - - - - NW 20 26 11 14 - - -
25/11:00pm - - - - - NW 20 30 11 16 - - -
25/10:30pm - - - - - WNW 30 41 16 22 - - -
25/10:00pm - - - - - WNW 33 43 18 23 - - -
25/09:30pm - - - - - WNW 35 41 19 22 - - -
25/09:00pm - - - - - WNW 35 46 19 25 - - -
25/08:30pm - - - - - WNW 35 44 19 24 - - -
25/08:00pm - - - - - W 43 56 23 30 - - -
25/07:30pm - - - - - W 48 67 26 36 - - -
25/07:00pm - - - - - WNW 44 54 24 29 - - -
25/06:33pm - - - - - W 39 63 21 34 - - -
25/06:30pm - - - - - W 37 50 20 27 - - -
25/06:02pm - - - - - W 37 56 20 30 - - -
25/06:00pm - - - - - W 35 52 19 28 - - -
25/05:30pm - - - - - W 44 57 24 31 - - -
25/05:13pm - - - - - WNW 48 67 26 36 - - -
25/05:00pm - - - - - W 48 63 26 34 - - -
25/04:44pm - - - - - W 46 65 25 35 - - -
25/04:30pm - - - - - W 48 63 26 34 - - -
25/04:08pm - - - - - WNW 43 63 23 34 - - -
25/04:00pm - - - - - WNW 41 52 22 28 - - -
25/03:30pm - - - - - W 44 54 24 29 - - -
25/03:00pm - - - - - WSW 52 69 28 37 - - -
25/02:34pm - - - - - W 54 72 29 39 - - -
25/02:30pm - - - - - W 52 67 28 36 - - -
25/02:29pm - - - - - W 52 67 28 36 - - -
25/02:10pm - - - - - WNW 52 72 28 39 - - -
25/02:00pm - - - - - W 52 69 28 37 - - -
25/01:30pm - - - - - W 56 80 30 43 - - -
25/01:01pm - - - - - W 54 72 29 39 - - -
25/01:00pm - - - - - W 56 72 30 39 - - -
25/12:35pm - - - - - WNW 59 82 32 44 - - -
25/12:30pm - - - - - WNW 59 82 32 44 - - -
25/12:15pm - - - - - WNW 46 67 25 36 - - -
25/12:00pm - - - - - WNW 46 61 25 33 - - -
25/11:30am - - - - - WNW 46 65 25 35 - - -
25/11:27am - - - - - WNW 46 65 25 35 - - -
25/11:00am - - - - - WNW 46 61 25 33 - - -
25/10:30am - - - - - W 46 57 25 31 - - -
25/10:10am - - - - - WNW 44 63 24 34 - - -
25/10:00am - - - - - W 48 61 26 33 - - -
25/09:30am - - - - - W 43 54 23 29 - - -
25/09:00am - - - - - W 48 63 26 34 - - -
25/08:30am - - - - - W 44 56 24 30 - - -
25/08:16am - - - - - W 46 65 25 35 - - -
25/08:00am - - - - - W 43 50 23 27 - - -
25/07:30am - - - - - W 39 46 21 25 - - -
25/07:12am - - - - - WNW 41 54 22 29 - - -
25/07:00am - - - - - WNW 39 48 21 26 - - -
25/06:30am - - - - - WNW 35 46 19 25 - - -
25/06:00am - - - - - WNW 41 57 22 31 - - -
25/05:30am - - - - - WNW 43 57 23 31 - - -
25/05:00am - - - - - WNW 41 57 22 31 - - -
25/04:57am - - - - - WNW 39 57 21 31 - - -
25/04:30am - - - - - WNW 39 50 21 27 - - -
25/04:00am - - - - - W 44 52 24 28 - - -
25/03:30am - - - - - WNW 46 63 25 34 - - -
25/03:00am - - - - - WNW 46 57 25 31 - - -
25/02:31am - - - - - WNW 44 63 24 34 - - -
25/02:30am - - - - - WNW 44 59 24 32 - - -
25/02:20am - - - - - WNW 33 54 18 29 - - -
25/02:00am - - - - - NW 33 41 18 22 - - -
25/01:30am - - - - - NW 33 44 18 24 - - -
25/01:00am - - - - - NW 44 67 24 36 - - -
25/12:56am - - - - - NW 52 72 28 39 - - -
25/12:48am - - - - - NNW 44 72 24 39 - - -
25/12:43am - - - - - N 32 59 17 32 - - -
25/12:30am - - - - - N 26 39 14 21 - - -
25/12:00am - - - - - N 35 50 19 27 - - -
 
Date/Time
EDT
Temp
°C
App
Temp
°C
Dew
Point
°C
Rel
Hum
%
Delta-T
°C
Wind Press
QNH
hPa
Press
MSL
hPa
Rain since
9am
mm
Dir  Spd
km/h
Gust
km/h
Spd
kts
Gust
kts
24/11:30pm - - - - - NNW 37 54 20 29 - - -
24/11:04pm - - - - - N 43 63 23 34 - - -
24/11:00pm - - - - - N 39 57 21 31 - - -
24/10:46pm - - - - - N 41 61 22 33 - - -
24/10:30pm - - - - - N 39 57 21 31 - - -
24/10:00pm - - - - - N 35 54 19 29 - - -
24/09:36pm - - - - - N 37 57 20 31 - - -
24/09:30pm - - - - - N 37 52 20 28 - - -
24/09:00pm - - - - - N 41 67 22 36 - - -
24/08:49pm - - - - - N 35 54 19 29 - - -
24/08:30pm - - - - - N 30 48 16 26 - - -
24/08:00pm - - - - - N 33 48 18 26 - - -
24/07:43pm - - - - - NNW 32 52 17 28 - - -
24/07:30pm - - - - - N 37 56 20 30 - - -
24/07:01pm - - - - - NNW 39 57 21 31 - - -
24/07:00pm - - - - - NNW 41 57 22 31 - - -
24/06:36pm - - - - - N 32 50 17 27 - - -
24/06:30pm - - - - - NNW 30 48 16 26 - - -
24/06:14pm - - - - - NNW 28 48 15 26 - - -
24/06:00pm - - - - - N 32 50 17 27 - - -
24/05:30pm - - - - - N 30 50 16 27 - - -
24/05:00pm - - - - - N 30 46 16 25 - - -
24/04:30pm - - - - - N 39 61 21 33 - - -
24/04:00pm - - - - - N 39 63 21 34 - - -
24/03:34pm - - - - - N 33 52 18 28 - - -
24/03:30pm - - - - - N 33 50 18 27 - - -
24/03:00pm - - - - - N 32 52 17 28 - - -
24/02:39pm - - - - - N 30 50 16 27 - - -
24/02:30pm - - - - - N 30 46 16 25 - - -
24/02:12pm - - - - - N 28 50 15 27 - - -
24/02:00pm - - - - - N 32 44 17 24 - - -
24/01:35pm - - - - - N 28 48 15 26 - - -
24/01:30pm - - - - - N 22 35 12 19 - - -
24/01:00pm - - - - - N 24 35 13 19 - - -
24/12:30pm - - - - - NNW 22 32 12 17 - - -
24/12:00pm - - - - - NNW 20 32 11 17 - - -
24/11:30am - - - - - N 15 24 8 13 - - -
24/11:00am - - - - - N 9 20 5 11 - - -
24/10:30am - - - - - N 15 20 8 11 - - -
24/10:00am - - - - - NNE 13 20 7 11 - - -
24/09:30am - - - - - N 13 19 7 10 - - -
24/09:00am - - - - - NNE 13 17 7 9 - - -
24/08:30am - - - - - NE 7 11 4 6 - - -
24/08:00am - - - - - NE 6 7 3 4 - - -
24/07:30am - - - - - NE 6 6 3 3 - - -
24/07:00am - - - - - NE 4 6 2 3 - - -
24/06:30am - - - - - NE 4 6 2 3 - - -
24/06:00am - - - - - N 2 4 1 2 - - -
24/05:30am - - - - - NNE 2 4 1 2 - - -
24/05:00am - - - - - E 4 6 2 3 - - -
24/04:30am - - - - - E 7 9 4 5 - - -
24/04:00am - - - - - NE 4 6 2 3 - - -
24/03:30am - - - - - SW 2 9 1 5 - - -
24/03:00am - - - - - WSW 6 9 3 5 - - -
24/02:30am - - - - - W 7 11 4 6 - - -
24/02:00am - - - - - WSW 11 13 6 7 - - -
24/01:30am - - - - - WSW 11 17 6 9 - - -
24/01:00am - - - - - SW 11 17 6 9 - - -
24/12:30am - - - - - SSE 11 13 6 7 - - -
24/12:00am - - - - - SSE 17 20 9 11 - - -
 
Date/Time
EDT
Temp
°C
App
Temp
°C
Dew
Point
°C
Rel
Hum
%
Delta-T
°C
Wind Press
QNH
hPa
Press
MSL
hPa
Rain since
9am
mm
Dir  Spd
km/h
Gust
km/h
Spd
kts
Gust
kts
23/11:30pm - - - - - S 19 22 10 12 - - -
23/11:00pm - - - - - SSE 17 22 9 12 - - -
23/10:30pm - - - - - SSE 15 20 8 11 - - -
23/10:00pm - - - - - SSE 17 20 9 11 - - -
23/09:30pm - - - - - S 20 24 11 13 - - -
23/09:00pm - - - - - SSE 22 28 12 15 - - -
23/08:30pm - - - - - SSE 22 28 12 15 - - -
23/08:00pm - - - - - S 33 37 18 20 - - -
23/07:30pm - - - - - S 33 41 18 22 - - -
23/07:00pm - - - - - S 39 46 21 25 - - -
23/06:30pm - - - - - S 37 48 20 26 - - -
23/06:00pm - - - - - SSW 43 52 23 28 - - -
23/05:38pm - - - - - SW 28 50 15 27 - - -
23/05:30pm - - - - - NNW 22 32 12 17 - - -

Latest Capital City Observations: Canberra | Sydney | Melbourne | Brisbane | Adelaide | Perth | Hobart | Darwin

Other formats

Comma delimited format used in spreadsheet applications
http://www.bom.gov.au/fwo/IDV60901/IDV60901.95864.axf

JavaScript Object Notation format (JSON) in row-major order
http://www.bom.gov.au/fwo/IDV60901/IDV60901.95864.json

Data quality

Most of these data are generated automatically and are frequently updated. Quality checks on data are not normally performed. It is possible for incorrect values to appear. Refer to information at About Latest Weather Observations and please check the disclaimer before using these data.